sensor_id;sensor_type;location;lat;lon;timestamp;pressure;altitude;pressure_sealevel;temperature;humidity
31717;BME280;18301;51.076;17.046;2023-03-16T00:03:47;100561.31;;;2.57;73.22
31717;BME280;18301;51.076;17.046;2023-03-16T00:08:48;100564.19;;;2.27;73.94
31717;BME280;18301;51.076;17.046;2023-03-16T00:13:50;100566.94;;;2.25;74.33
31717;BME280;18301;51.076;17.046;2023-03-16T00:18:51;100579.78;;;2.38;73.83
31717;BME280;18301;51.076;17.046;2023-03-16T00:23:53;100578.09;;;2.35;74.05
31717;BME280;18301;51.076;17.046;2023-03-16T00:28:54;100573.53;;;2.39;73.59
31717;BME280;18301;51.076;17.046;2023-03-16T00:33:55;100589.28;;;2.45;73.75
31717;BME280;18301;51.076;17.046;2023-03-16T00:38:57;100589.97;;;2.26;74.08
31717;BME280;18301;51.076;17.046;2023-03-16T00:43:58;100589.28;;;2.45;72.83
31717;BME280;18301;51.076;17.046;2023-03-16T00:49:00;100592.34;;;2.34;73.14
31717;BME280;18301;51.076;17.046;2023-03-16T00:54:03;100599.75;;;2.26;74.11
31717;BME280;18301;51.076;17.046;2023-03-16T00:59:05;100599.19;;;2.41;73.55
31717;BME280;18301;51.076;17.046;2023-03-16T01:04:09;100605.72;;;2.33;73.41
31717;BME280;18301;51.076;17.046;2023-03-16T01:09:11;100614.31;;;2.16;73.91
31717;BME280;18301;51.076;17.046;2023-03-16T01:14:15;100618.59;;;2.20;73.56
31717;BME280;18301;51.076;17.046;2023-03-16T01:19:16;100627.34;;;2.23;73.75
31717;BME280;18301;51.076;17.046;2023-03-16T01:24:18;100632.88;;;2.17;73.84
31717;BME280;18301;51.076;17.046;2023-03-16T01:29:19;100624.09;;;2.40;73.32
31717;BME280;18301;51.076;17.046;2023-03-16T01:34:21;100635.19;;;2.28;73.67
31717;BME280;18301;51.076;17.046;2023-03-16T01:39:23;100646.69;;;2.03;73.97
31717;BME280;18301;51.076;17.046;2023-03-16T01:44:26;100637.78;;;2.04;73.73
31717;BME280;18301;51.076;17.046;2023-03-16T01:49:36;100647.66;;;2.01;73.85
31717;BME280;18301;51.076;17.046;2023-03-16T01:54:45;100650.09;;;1.82;74.80
31717;BME280;18301;51.076;17.046;2023-03-16T01:59:55;100647.16;;;1.90;75.07
31717;BME280;18301;51.076;17.046;2023-03-16T02:05:09;100659.19;;;2.01;74.34
31717;BME280;18301;51.076;17.046;2023-03-16T02:10:15;100654.19;;;2.17;74.06
31717;BME280;18301;51.076;17.046;2023-03-16T02:15:16;100657.34;;;2.03;74.10
31717;BME280;18301;51.076;17.046;2023-03-16T02:25:57;100655.03;;;1.93;74.52
31717;BME280;18301;51.076;17.046;2023-03-16T02:31:01;100664.72;;;1.95;74.71
31717;BME280;18301;51.076;17.046;2023-03-16T02:36:03;100659.28;;;1.98;74.84
31717;BME280;18301;51.076;17.046;2023-03-16T02:41:11;100663.59;;;1.76;75.43
31717;BME280;18301;51.076;17.046;2023-03-16T02:46:14;100670.44;;;1.83;75.07
31717;BME280;18301;51.076;17.046;2023-03-16T02:51:17;100677.28;;;1.90;75.63
31717;BME280;18301;51.076;17.046;2023-03-16T02:56:18;100683.88;;;2.06;74.88
31717;BME280;18301;51.076;17.046;2023-03-16T03:01:19;100680.88;;;1.89;75.22
31717;BME280;18301;51.076;17.046;2023-03-16T03:06:22;100676.53;;;1.87;75.39
31717;BME280;18301;51.076;17.046;2023-03-16T03:11:24;100684.38;;;1.91;75.58
31717;BME280;18301;51.076;17.046;2023-03-16T03:16:26;100684.72;;;2.07;75.72
31717;BME280;18301;51.076;17.046;2023-03-16T03:21:28;100681.31;;;1.77;75.57
31717;BME280;18301;51.076;17.046;2023-03-16T03:26:29;100704.22;;;1.81;75.85
31717;BME280;18301;51.076;17.046;2023-03-16T03:31:31;100703.91;;;1.64;76.32
31717;BME280;18301;51.076;17.046;2023-03-16T03:36:33;100698.16;;;1.49;76.60
31717;BME280;18301;51.076;17.046;2023-03-16T03:41:35;100701.63;;;1.51;76.31
31717;BME280;18301;51.076;17.046;2023-03-16T03:46:36;100699.09;;;1.47;77.07
31717;BME280;18301;51.076;17.046;2023-03-16T03:51:38;100699.50;;;1.63;76.75
31717;BME280;18301;51.076;17.046;2023-03-16T03:56:41;100706.56;;;1.64;76.73
31717;BME280;18301;51.076;17.046;2023-03-16T04:01:43;100710.41;;;1.81;76.08
31717;BME280;18301;51.076;17.046;2023-03-16T04:06:45;100712.28;;;1.51;76.29
31717;BME280;18301;51.076;17.046;2023-03-16T04:11:46;100717.31;;;1.60;76.51
31717;BME280;18301;51.076;17.046;2023-03-16T04:16:48;100717.72;;;1.47;76.72
31717;BME280;18301;51.076;17.046;2023-03-16T04:21:50;100721.34;;;1.44;77.09
31717;BME280;18301;51.076;17.046;2023-03-16T04:26:52;100718.06;;;1.64;76.65
31717;BME280;18301;51.076;17.046;2023-03-16T04:31:54;100731.28;;;1.39;77.15
31717;BME280;18301;51.076;17.046;2023-03-16T04:36:56;100734.31;;;1.27;77.43
31717;BME280;18301;51.076;17.046;2023-03-16T04:41:57;100741.53;;;1.22;77.37
31717;BME280;18301;51.076;17.046;2023-03-16T04:46:59;100748.59;;;1.23;77.69
31717;BME280;18301;51.076;17.046;2023-03-16T04:52:00;100753.66;;;1.01;78.07
31717;BME280;18301;51.076;17.046;2023-03-16T04:57:03;100745.81;;;1.27;78.35
31717;BME280;18301;51.076;17.046;2023-03-16T05:02:06;100744.56;;;1.39;77.40
31717;BME280;18301;51.076;17.046;2023-03-16T05:07:07;100755.22;;;1.39;77.74
31717;BME280;18301;51.076;17.046;2023-03-16T05:12:09;100764.94;;;1.38;77.89
31717;BME280;18301;51.076;17.046;2023-03-16T05:17:10;100771.06;;;1.42;77.34
31717;BME280;18301;51.076;17.046;2023-03-16T05:22:15;100766.34;;;1.52;77.81
31717;BME280;18301;51.076;17.046;2023-03-16T05:27:16;100761.81;;;1.54;77.43
31717;BME280;18301;51.076;17.046;2023-03-16T05:32:18;100757.34;;;1.56;77.16
31717;BME280;18301;51.076;17.046;2023-03-16T05:37:19;100766.16;;;1.58;77.43
31717;BME280;18301;51.076;17.046;2023-03-16T05:42:21;100766.81;;;1.65;77.26
31717;BME280;18301;51.076;17.046;2023-03-16T05:47:22;100762.94;;;1.75;77.28
31717;BME280;18301;51.076;17.046;2023-03-16T05:52:24;100780.78;;;1.73;77.23
31717;BME280;18301;51.076;17.046;2023-03-16T05:57:25;100765.22;;;1.87;76.67
31717;BME280;18301;51.076;17.046;2023-03-16T06:02:27;100779.69;;;2.06;76.64
31717;BME280;18301;51.076;17.046;2023-03-16T06:07:29;100791.03;;;2.12;76.79
31717;BME280;18301;51.076;17.046;2023-03-16T06:12:30;100793.31;;;2.24;75.88
31717;BME280;18301;51.076;17.046;2023-03-16T06:17:32;100799.22;;;2.05;75.84
31717;BME280;18301;51.076;17.046;2023-03-16T06:22:34;100808.69;;;2.16;76.23
31717;BME280;18301;51.076;17.046;2023-03-16T06:27:37;100818.16;;;2.51;75.49
31717;BME280;18301;51.076;17.046;2023-03-16T06:32:39;100818.56;;;2.39;75.22
31717;BME280;18301;51.076;17.046;2023-03-16T06:37:45;100819.38;;;2.41;75.88
31717;BME280;18301;51.076;17.046;2023-03-16T06:42:46;100825.19;;;2.52;75.43
31717;BME280;18301;51.076;17.046;2023-03-16T06:47:48;100827.22;;;2.72;75.49
31717;BME280;18301;51.076;17.046;2023-03-16T06:52:49;100825.38;;;2.99;74.19
31717;BME280;18301;51.076;17.046;2023-03-16T06:57:51;100828.28;;;2.91;74.91
31717;BME280;18301;51.076;17.046;2023-03-16T07:02:53;100835.00;;;3.03;74.45
31717;BME280;18301;51.076;17.046;2023-03-16T07:07:54;100836.03;;;3.24;73.09
31717;BME280;18301;51.076;17.046;2023-03-16T07:12:56;100847.75;;;3.43;73.27
31717;BME280;18301;51.076;17.046;2023-03-16T07:17:57;100839.94;;;3.84;72.60
31717;BME280;18301;51.076;17.046;2023-03-16T07:22:59;100839.47;;;3.97;72.20
31717;BME280;18301;51.076;17.046;2023-03-16T07:28:00;100844.63;;;3.79;71.33
31717;BME280;18301;51.076;17.046;2023-03-16T07:33:02;100850.47;;;4.11;70.97
31717;BME280;18301;51.076;17.046;2023-03-16T07:38:03;100852.34;;;4.31;70.70
31717;BME280;18301;51.076;17.046;2023-03-16T07:43:05;100853.25;;;4.31;70.69
31717;BME280;18301;51.076;17.046;2023-03-16T07:48:06;100855.97;;;4.30;69.64
31717;BME280;18301;51.076;17.046;2023-03-16T07:53:09;100869.03;;;4.37;69.48
31717;BME280;18301;51.076;17.046;2023-03-16T07:58:11;100860.47;;;4.92;67.68
31717;BME280;18301;51.076;17.046;2023-03-16T08:03:12;100860.91;;;4.61;68.23
31717;BME280;18301;51.076;17.046;2023-03-16T08:08:14;100867.22;;;4.80;67.51
31717;BME280;18301;51.076;17.046;2023-03-16T08:13:28;100863.50;;;5.05;67.43
31717;BME280;18301;51.076;17.046;2023-03-16T08:18:44;100867.59;;;5.53;66.81
31717;BME280;18301;51.076;17.046;2023-03-16T08:23:46;100868.56;;;5.71;62.78
31717;BME280;18301;51.076;17.046;2023-03-16T08:28:51;100882.81;;;5.71;62.88
31717;BME280;18301;51.076;17.046;2023-03-16T08:33:53;100885.25;;;5.57;63.32
31717;BME280;18301;51.076;17.046;2023-03-16T08:38:54;100885.44;;;5.92;62.42
31717;BME280;18301;51.076;17.046;2023-03-16T08:44:08;100880.09;;;6.30;63.03
31717;BME280;18301;51.076;17.046;2023-03-16T08:49:09;100894.34;;;6.49;61.38
31717;BME280;18301;51.076;17.046;2023-03-16T08:54:11;100901.94;;;6.58;59.45
31717;BME280;18301;51.076;17.046;2023-03-16T08:59:13;100899.22;;;6.41;59.52
31717;BME280;18301;51.076;17.046;2023-03-16T09:04:29;100904.91;;;6.52;56.79
31717;BME280;18301;51.076;17.046;2023-03-16T09:09:31;100890.59;;;6.71;56.79
31717;BME280;18301;51.076;17.046;2023-03-16T09:14:33;100901.53;;;6.49;55.98
31717;BME280;18301;51.076;17.046;2023-03-16T09:19:34;100895.44;;;6.45;57.46
31717;BME280;18301;51.076;17.046;2023-03-16T09:24:54;100898.34;;;6.59;54.87
31717;BME280;18301;51.076;17.046;2023-03-16T09:29:56;100902.25;;;6.52;53.68
31717;BME280;18301;51.076;17.046;2023-03-16T09:34:59;100892.22;;;6.75;55.61
31717;BME280;18301;51.076;17.046;2023-03-16T09:40:01;100900.75;;;7.00;54.77
31717;BME280;18301;51.076;17.046;2023-03-16T09:45:17;100899.88;;;7.17;54.19
31717;BME280;18301;51.076;17.046;2023-03-16T09:50:31;100896.97;;;7.22;55.31
31717;BME280;18301;51.076;17.046;2023-03-16T09:56:02;100904.81;;;7.93;52.73
31717;BME280;18301;51.076;17.046;2023-03-16T10:01:32;100901.44;;;7.72;52.18
31717;BME280;18301;51.076;17.046;2023-03-16T10:12:13;100912.19;;;7.72;50.67
31717;BME280;18301;51.076;17.046;2023-03-16T10:17:18;100908.97;;;7.98;50.29
31717;BME280;18301;51.076;17.046;2023-03-16T10:22:24;100915.91;;;8.02;48.25
31717;BME280;18301;51.076;17.046;2023-03-16T10:27:32;100916.19;;;7.47;50.51
31717;BME280;18301;51.076;17.046;2023-03-16T10:32:34;100917.81;;;8.00;48.82
31717;BME280;18301;51.076;17.046;2023-03-16T10:37:37;100907.34;;;8.12;50.21
31717;BME280;18301;51.076;17.046;2023-03-16T10:42:38;100896.75;;;8.08;50.46
31717;BME280;18301;51.076;17.046;2023-03-16T10:47:40;100920.00;;;7.60;45.12
31717;BME280;18301;51.076;17.046;2023-03-16T10:52:44;100902.22;;;7.58;48.80
31717;BME280;18301;51.076;17.046;2023-03-16T10:57:49;100903.41;;;7.86;45.90
31717;BME280;18301;51.076;17.046;2023-03-16T11:02:52;100896.25;;;8.18;47.71
31717;BME280;18301;51.076;17.046;2023-03-16T11:07:59;100896.72;;;8.42;46.62
31717;BME280;18301;51.076;17.046;2023-03-16T11:13:10;100885.31;;;8.21;47.46
31717;BME280;18301;51.076;17.046;2023-03-16T11:18:21;100881.19;;;8.63;47.52
31717;BME280;18301;51.076;17.046;2023-03-16T11:23:31;100881.53;;;9.03;45.54
31717;BME280;18301;51.076;17.046;2023-03-16T11:28:39;100878.84;;;9.17;44.78
31717;BME280;18301;51.076;17.046;2023-03-16T11:33:43;100884.03;;;9.20;46.19
31717;BME280;18301;51.076;17.046;2023-03-16T11:39:05;100874.28;;;9.33;42.56
31717;BME280;18301;51.076;17.046;2023-03-16T11:44:40;100881.34;;;9.64;42.94
31717;BME280;18301;51.076;17.046;2023-03-16T11:50:20;100863.25;;;9.52;43.54
31717;BME280;18301;51.076;17.046;2023-03-16T11:55:44;100872.88;;;8.82;41.28
31717;BME280;18301;51.076;17.046;2023-03-16T12:01:11;100863.72;;;9.59;41.80
31717;BME280;18301;51.076;17.046;2023-03-16T12:11:55;100858.78;;;9.37;41.44
31717;BME280;18301;51.076;17.046;2023-03-16T12:17:06;100858.50;;;9.41;42.04
31717;BME280;18301;51.076;17.046;2023-03-16T12:22:27;100864.72;;;9.13;42.29
31717;BME280;18301;51.076;17.046;2023-03-16T12:27:35;100856.00;;;9.24;42.30
31717;BME280;18301;51.076;17.046;2023-03-16T12:32:50;100851.84;;;9.33;42.82
31717;BME280;18301;51.076;17.046;2023-03-16T12:48:56;100847.34;;;9.48;41.63
31717;BME280;18301;51.076;17.046;2023-03-16T12:53:59;100838.88;;;9.68;42.69
31717;BME280;18301;51.076;17.046;2023-03-16T12:59:03;100853.84;;;9.15;41.20
31717;BME280;18301;51.076;17.046;2023-03-16T13:04:19;100849.75;;;9.38;43.18
31717;BME280;18301;51.076;17.046;2023-03-16T13:09:25;100846.41;;;9.49;41.60
31717;BME280;18301;51.076;17.046;2023-03-16T13:14:42;100843.69;;;9.34;43.06
31717;BME280;18301;51.076;17.046;2023-03-16T13:19:57;100841.41;;;9.42;42.69
31717;BME280;18301;51.076;17.046;2023-03-16T13:30:20;100850.25;;;9.73;42.19
31717;BME280;18301;51.076;17.046;2023-03-16T13:35:27;100856.59;;;9.58;42.22
31717;BME280;18301;51.076;17.046;2023-03-16T13:40:29;100846.00;;;9.83;41.93
31717;BME280;18301;51.076;17.046;2023-03-16T13:45:33;100844.16;;;9.69;40.73
31717;BME280;18301;51.076;17.046;2023-03-16T13:50:37;100841.00;;;9.77;42.33
31717;BME280;18301;51.076;17.046;2023-03-16T13:55:43;100846.81;;;10.12;40.61
31717;BME280;18301;51.076;17.046;2023-03-16T14:00:45;100842.41;;;10.11;40.79
31717;BME280;18301;51.076;17.046;2023-03-16T14:05:47;100837.34;;;9.78;41.75
31717;BME280;18301;51.076;17.046;2023-03-16T14:10:50;100840.06;;;9.64;41.21
31717;BME280;18301;51.076;17.046;2023-03-16T14:16:24;100843.69;;;9.63;41.82
31717;BME280;18301;51.076;17.046;2023-03-16T14:21:31;100834.44;;;9.38;40.77
31717;BME280;18301;51.076;17.046;2023-03-16T14:26:43;100832.44;;;9.56;42.34
31717;BME280;18301;51.076;17.046;2023-03-16T14:31:45;100809.25;;;9.82;41.96
31717;BME280;18301;51.076;17.046;2023-03-16T14:36:47;100815.41;;;9.27;40.89
31717;BME280;18301;51.076;17.046;2023-03-16T14:41:49;100808.69;;;9.49;41.58
31717;BME280;18301;51.076;17.046;2023-03-16T14:46:53;100800.41;;;9.37;42.27
31717;BME280;18301;51.076;17.046;2023-03-16T14:52:02;100806.00;;;9.49;41.87
31717;BME280;18301;51.076;17.046;2023-03-16T14:57:04;100810.97;;;9.40;41.44
31717;BME280;18301;51.076;17.046;2023-03-16T15:02:15;100804.03;;;9.51;40.89
31717;BME280;18301;51.076;17.046;2023-03-16T15:07:26;100815.22;;;9.30;41.00
31717;BME280;18301;51.076;17.046;2023-03-16T15:12:29;100813.28;;;9.47;41.39
31717;BME280;18301;51.076;17.046;2023-03-16T15:17:31;100802.31;;;9.35;41.23
31717;BME280;18301;51.076;17.046;2023-03-16T15:22:36;100801.34;;;9.22;41.09
31717;BME280;18301;51.076;17.046;2023-03-16T15:27:38;100802.41;;;9.19;40.57
31717;BME280;18301;51.076;17.046;2023-03-16T15:32:39;100808.06;;;9.01;39.66
31717;BME280;18301;51.076;17.046;2023-03-16T15:37:41;100808.00;;;8.86;40.61
31717;BME280;18301;51.076;17.046;2023-03-16T15:42:43;100808.00;;;8.72;40.90
31717;BME280;18301;51.076;17.046;2023-03-16T15:47:48;100813.25;;;8.43;41.21
31717;BME280;18301;51.076;17.046;2023-03-16T15:53:01;100800.28;;;8.34;41.16
31717;BME280;18301;51.076;17.046;2023-03-16T15:58:12;100813.25;;;8.43;41.68
31717;BME280;18301;51.076;17.046;2023-03-16T16:03:16;100817.06;;;8.39;41.41
31717;BME280;18301;51.076;17.046;2023-03-16T16:08:18;100819.41;;;8.45;42.15
31717;BME280;18301;51.076;17.046;2023-03-16T16:13:25;100820.56;;;8.41;42.08
31717;BME280;18301;51.076;17.046;2023-03-16T16:18:46;100816.34;;;8.36;42.70
31717;BME280;18301;51.076;17.046;2023-03-16T16:23:48;100822.16;;;8.28;42.84
31717;BME280;18301;51.076;17.046;2023-03-16T16:28:50;100818.63;;;8.12;43.09
31717;BME280;18301;51.076;17.046;2023-03-16T16:33:53;100819.16;;;8.02;43.63
31717;BME280;18301;51.076;17.046;2023-03-16T16:38:54;100821.38;;;7.94;43.74
31717;BME280;18301;51.076;17.046;2023-03-16T16:43:57;100822.69;;;7.87;43.98
31717;BME280;18301;51.076;17.046;2023-03-16T16:49:12;100824.34;;;7.74;44.27
31717;BME280;18301;51.076;17.046;2023-03-16T16:54:19;100828.00;;;7.73;44.64
31717;BME280;18301;51.076;17.046;2023-03-16T16:59:23;100831.09;;;7.65;44.49
31717;BME280;18301;51.076;17.046;2023-03-16T17:04:27;100830.38;;;7.61;44.95
31717;BME280;18301;51.076;17.046;2023-03-16T17:09:29;100841.47;;;7.55;46.01
31717;BME280;18301;51.076;17.046;2023-03-16T17:14:30;100842.13;;;7.43;46.79
31717;BME280;18301;51.076;17.046;2023-03-16T17:19:32;100844.50;;;7.32;47.38
31717;BME280;18301;51.076;17.046;2023-03-16T17:24:33;100852.44;;;7.18;47.48
31717;BME280;18301;51.076;17.046;2023-03-16T17:29:35;100864.84;;;7.03;47.35
31717;BME280;18301;51.076;17.046;2023-03-16T17:34:37;100857.97;;;6.97;47.85
31717;BME280;18301;51.076;17.046;2023-03-16T17:39:38;100867.03;;;6.95;48.63
31717;BME280;18301;51.076;17.046;2023-03-16T17:44:42;100865.63;;;6.87;49.78
31717;BME280;18301;51.076;17.046;2023-03-16T17:49:44;100862.28;;;6.82;49.84
31717;BME280;18301;51.076;17.046;2023-03-16T17:54:50;100867.25;;;6.73;49.99
31717;BME280;18301;51.076;17.046;2023-03-16T17:59:52;100860.34;;;6.68;50.27
31717;BME280;18301;51.076;17.046;2023-03-16T18:04:54;100867.88;;;6.60;51.12
31717;BME280;18301;51.076;17.046;2023-03-16T18:09:56;100882.44;;;6.55;50.27
31717;BME280;18301;51.076;17.046;2023-03-16T18:14:58;100881.75;;;6.51;51.00
31717;BME280;18301;51.076;17.046;2023-03-16T18:19:59;100880.16;;;6.47;51.23
31717;BME280;18301;51.076;17.046;2023-03-16T18:25:01;100877.06;;;6.37;52.13
31717;BME280;18301;51.076;17.046;2023-03-16T18:30:02;100871.41;;;6.25;52.80
31717;BME280;18301;51.076;17.046;2023-03-16T18:35:08;100871.56;;;6.21;52.45
31717;BME280;18301;51.076;17.046;2023-03-16T18:40:16;100880.56;;;6.20;52.53
31717;BME280;18301;51.076;17.046;2023-03-16T18:45:18;100878.97;;;6.16;53.80
31717;BME280;18301;51.076;17.046;2023-03-16T18:50:27;100878.53;;;6.07;54.00
31717;BME280;18301;51.076;17.046;2023-03-16T18:55:30;100870.41;;;6.08;53.35
31717;BME280;18301;51.076;17.046;2023-03-16T19:00:32;100866.06;;;6.06;53.82
31717;BME280;18301;51.076;17.046;2023-03-16T19:05:35;100872.59;;;6.00;53.75
31717;BME280;18301;51.076;17.046;2023-03-16T19:10:41;100855.63;;;5.81;54.47
31717;BME280;18301;51.076;17.046;2023-03-16T19:15:49;100875.31;;;5.80;54.37
31717;BME280;18301;51.076;17.046;2023-03-16T19:20:51;100875.88;;;5.67;54.98
31717;BME280;18301;51.076;17.046;2023-03-16T19:25:54;100874.22;;;5.65;55.27
31717;BME280;18301;51.076;17.046;2023-03-16T19:30:56;100870.94;;;5.58;55.03
31717;BME280;18301;51.076;17.046;2023-03-16T19:35:57;100872.75;;;5.58;55.13
31717;BME280;18301;51.076;17.046;2023-03-16T19:40:59;100877.75;;;5.65;53.92
31717;BME280;18301;51.076;17.046;2023-03-16T19:46:01;100879.88;;;5.57;53.00
31717;BME280;18301;51.076;17.046;2023-03-16T19:51:03;100874.69;;;5.54;53.24
31717;BME280;18301;51.076;17.046;2023-03-16T19:56:12;100881.34;;;5.45;53.57
31717;BME280;18301;51.076;17.046;2023-03-16T20:01:18;100892.38;;;5.38;53.40
31717;BME280;18301;51.076;17.046;2023-03-16T20:06:21;100896.91;;;5.36;52.84
31717;BME280;18301;51.076;17.046;2023-03-16T20:11:27;100897.94;;;5.33;54.02
31717;BME280;18301;51.076;17.046;2023-03-16T20:16:34;100909.66;;;5.30;54.04
31717;BME280;18301;51.076;17.046;2023-03-16T20:21:36;100900.81;;;5.28;53.30
31717;BME280;18301;51.076;17.046;2023-03-16T20:26:37;100892.13;;;5.23;53.33
31717;BME280;18301;51.076;17.046;2023-03-16T20:31:39;100890.09;;;5.28;52.97
31717;BME280;18301;51.076;17.046;2023-03-16T20:36:40;100883.16;;;5.24;53.51
31717;BME280;18301;51.076;17.046;2023-03-16T20:41:42;100881.06;;;5.11;53.49
31717;BME280;18301;51.076;17.046;2023-03-16T20:46:45;100882.50;;;4.99;53.99
31717;BME280;18301;51.076;17.046;2023-03-16T20:51:48;100879.00;;;4.97;53.75
31717;BME280;18301;51.076;17.046;2023-03-16T20:56:49;100881.25;;;4.85;54.79
31717;BME280;18301;51.076;17.046;2023-03-16T21:01:51;100878.31;;;4.71;54.65
31717;BME280;18301;51.076;17.046;2023-03-16T21:06:55;100878.56;;;4.65;55.55
31717;BME280;18301;51.076;17.046;2023-03-16T21:11:57;100871.72;;;4.58;55.81
31717;BME280;18301;51.076;17.046;2023-03-16T21:16:59;100870.03;;;4.55;56.21
31717;BME280;18301;51.076;17.046;2023-03-16T21:22:00;100865.03;;;4.48;57.04
31717;BME280;18301;51.076;17.046;2023-03-16T21:27:02;100854.84;;;4.35;56.58
31717;BME280;18301;51.076;17.046;2023-03-16T21:32:13;100849.19;;;4.21;56.97
31717;BME280;18301;51.076;17.046;2023-03-16T21:37:20;100843.97;;;4.18;56.90
31717;BME280;18301;51.076;17.046;2023-03-16T21:42:22;100837.75;;;3.96;56.71
31717;BME280;18301;51.076;17.046;2023-03-16T21:47:25;100839.03;;;3.85;57.35
31717;BME280;18301;51.076;17.046;2023-03-16T21:52:27;100833.13;;;3.77;57.31
31717;BME280;18301;51.076;17.046;2023-03-16T21:57:30;100832.41;;;3.72;57.75
31717;BME280;18301;51.076;17.046;2023-03-16T22:02:32;100830.81;;;3.68;58.27
31717;BME280;18301;51.076;17.046;2023-03-16T22:07:36;100826.06;;;3.53;58.17
31717;BME280;18301;51.076;17.046;2023-03-16T22:12:37;100835.88;;;3.52;58.79
31717;BME280;18301;51.076;17.046;2023-03-16T22:17:39;100833.47;;;3.44;59.08
31717;BME280;18301;51.076;17.046;2023-03-16T22:22:41;100843.13;;;3.49;59.33
31717;BME280;18301;51.076;17.046;2023-03-16T22:27:42;100855.75;;;3.43;58.81
31717;BME280;18301;51.076;17.046;2023-03-16T22:32:46;100838.81;;;3.44;59.45
31717;BME280;18301;51.076;17.046;2023-03-16T22:37:49;100843.38;;;3.41;58.87
31717;BME280;18301;51.076;17.046;2023-03-16T22:42:50;100845.31;;;3.37;58.55
31717;BME280;18301;51.076;17.046;2023-03-16T22:47:53;100840.03;;;3.36;59.33
31717;BME280;18301;51.076;17.046;2023-03-16T22:52:57;100838.00;;;3.42;58.93
31717;BME280;18301;51.076;17.046;2023-03-16T22:58:07;100831.22;;;3.34;59.02
31717;BME280;18301;51.076;17.046;2023-03-16T23:03:17;100848.53;;;3.22;58.70
31717;BME280;18301;51.076;17.046;2023-03-16T23:08:21;100852.25;;;3.18;59.15
31717;BME280;18301;51.076;17.046;2023-03-16T23:13:24;100858.34;;;3.21;59.69
31717;BME280;18301;51.076;17.046;2023-03-16T23:18:26;100869.88;;;3.22;59.44
31717;BME280;18301;51.076;17.046;2023-03-16T23:23:27;100879.56;;;3.25;59.75
31717;BME280;18301;51.076;17.046;2023-03-16T23:28:29;100885.22;;;3.15;60.26
31717;BME280;18301;51.076;17.046;2023-03-16T23:33:30;100882.81;;;3.08;60.60
31717;BME280;18301;51.076;17.046;2023-03-16T23:38:32;100873.38;;;2.99;60.89
31717;BME280;18301;51.076;17.046;2023-03-16T23:43:33;100880.69;;;2.92;61.03
31717;BME280;18301;51.076;17.046;2023-03-16T23:48:37;100864.78;;;2.89;61.39
31717;BME280;18301;51.076;17.046;2023-03-16T23:53:39;100841.09;;;2.82;61.50
31717;BME280;18301;51.076;17.046;2023-03-16T23:58:42;100850.03;;;2.79;60.67
